createdAt,value
2019-03-21T00:00:28.352Z,10.95
2019-03-21T00:02:57.886Z,10.94
2019-03-21T00:05:30.016Z,10.98
2019-03-21T00:07:59.462Z,11.01
2019-03-21T00:10:32.029Z,11.04
2019-03-21T00:13:01.773Z,11.08
2019-03-21T00:15:40.283Z,11.10
2019-03-21T00:18:12.614Z,11.09
2019-03-21T00:20:42.123Z,11.07
2019-03-21T00:23:11.689Z,11.05
2019-03-21T00:25:41.136Z,11.01
2019-03-21T00:28:10.634Z,11.01
2019-03-21T00:30:40.149Z,10.97
2019-03-21T00:33:09.604Z,10.92
2019-03-21T00:35:39.157Z,10.89
2019-03-21T00:38:08.656Z,10.84
2019-03-21T00:40:43.770Z,10.82
2019-03-21T00:43:13.286Z,10.86
2019-03-21T00:45:42.905Z,10.82
2019-03-21T00:48:16.340Z,10.85
2019-03-21T00:50:45.929Z,10.85
2019-03-21T00:53:15.514Z,10.86
2019-03-21T00:55:48.407Z,10.88
2019-03-21T00:58:17.903Z,10.92
2019-03-21T01:00:53.410Z,10.96
2019-03-21T01:03:22.893Z,10.96
2019-03-21T01:05:52.408Z,10.95
2019-03-21T01:08:21.878Z,10.96
2019-03-21T01:10:52.245Z,11.02
2019-03-21T01:13:22.233Z,11.02
2019-03-21T01:15:51.781Z,11.00
2019-03-21T01:18:21.267Z,10.99
2019-03-21T01:20:51.816Z,10.96
2019-03-21T01:23:21.297Z,10.94
2019-03-21T01:25:54.113Z,10.89
2019-03-21T01:28:23.559Z,10.83
2019-03-21T01:30:53.039Z,10.82
2019-03-21T01:33:22.488Z,10.81
2019-03-21T01:35:52.052Z,10.84
2019-03-21T01:38:21.497Z,10.85
2019-03-21T01:40:58.990Z,10.87
2019-03-21T01:43:28.492Z,10.85
2019-03-21T01:45:59.213Z,10.88
2019-03-21T01:48:28.789Z,10.94
2019-03-21T01:50:58.287Z,10.98
2019-03-21T01:53:27.748Z,11.04
2019-03-21T01:55:57.302Z,11.07
2019-03-21T01:58:26.913Z,11.09
2019-03-21T02:00:57.443Z,11.12
2019-03-21T02:03:26.988Z,11.15
2019-03-21T02:05:56.441Z,11.16
2019-03-21T02:08:25.925Z,11.16
2019-03-21T02:10:55.572Z,11.19
2019-03-21T02:13:25.423Z,11.17
2019-03-21T02:15:54.864Z,11.12
2019-03-21T02:18:24.358Z,11.10
2019-03-21T02:20:53.874Z,11.06
2019-03-21T02:23:23.597Z,11.07
2019-03-21T02:25:53.153Z,11.11
2019-03-21T02:28:22.607Z,11.10
2019-03-21T02:30:55.125Z,11.11
2019-03-21T02:33:35.362Z,11.12
2019-03-21T02:36:10.390Z,11.14
2019-03-21T02:38:39.885Z,11.19
2019-03-21T02:41:12.269Z,11.19
2019-03-21T02:43:41.826Z,11.17
2019-03-21T02:46:11.278Z,11.16
2019-03-21T02:48:40.785Z,11.17
2019-03-21T02:51:10.215Z,11.18
2019-03-21T02:53:40.152Z,11.17
2019-03-21T02:56:17.361Z,11.17
2019-03-21T02:58:46.810Z,11.18
2019-03-21T03:01:16.299Z,11.22
2019-03-21T03:03:45.746Z,11.22
2019-03-21T03:06:15.222Z,11.22
2019-03-21T03:08:44.703Z,11.20
2019-03-21T03:11:22.212Z,11.19
2019-03-21T03:13:52.079Z,11.19
2019-03-21T03:16:23.200Z,11.18
2019-03-21T03:18:52.650Z,11.21
2019-03-21T03:21:22.124Z,11.22
2019-03-21T03:23:51.586Z,11.24
2019-03-21T03:26:21.062Z,11.24
2019-03-21T03:28:50.531Z,11.25
2019-03-21T03:31:20.090Z,11.25
2019-03-21T03:33:49.549Z,11.25
2019-03-21T03:36:19.050Z,11.23
2019-03-21T03:38:48.555Z,11.22
2019-03-21T03:41:20.165Z,11.21
2019-03-21T03:43:49.814Z,11.18
2019-03-21T03:46:19.368Z,11.19
2019-03-21T03:48:48.851Z,11.21
2019-03-21T03:51:18.520Z,11.23
2019-03-21T03:53:47.966Z,11.25
2019-03-21T03:56:17.437Z,11.24
2019-03-21T03:58:55.758Z,11.23
2019-03-21T04:01:25.232Z,11.20
2019-03-21T04:03:54.775Z,11.22
2019-03-21T04:06:24.325Z,11.26
2019-03-21T04:08:53.825Z,11.28
2019-03-21T04:11:23.758Z,11.30
2019-03-21T04:13:53.286Z,11.31
2019-03-21T04:16:22.764Z,11.35
2019-03-21T04:18:52.238Z,11.36
2019-03-21T04:21:21.749Z,11.35
2019-03-21T04:23:51.196Z,11.33
2019-03-21T04:26:32.874Z,11.30
2019-03-21T04:29:02.336Z,11.27
2019-03-21T04:31:31.824Z,11.24
2019-03-21T04:34:04.305Z,11.20
2019-03-21T04:36:37.107Z,11.15
2019-03-21T04:39:13.901Z,11.13
2019-03-21T04:41:45.762Z,11.09
2019-03-21T04:44:22.499Z,11.06
2019-03-21T04:46:53.401Z,11.06
2019-03-21T04:49:23.477Z,11.05
2019-03-21T04:51:53.040Z,11.07
2019-03-21T04:54:22.526Z,11.08
2019-03-21T04:56:52.028Z,11.08
2019-03-21T04:59:21.550Z,11.09
2019-03-21T05:01:51.131Z,11.09
2019-03-21T05:04:20.613Z,11.08
2019-03-21T05:06:50.152Z,11.08
2019-03-21T05:09:19.591Z,11.12
2019-03-21T05:11:49.074Z,11.13
2019-03-21T05:14:19.596Z,11.14
2019-03-21T05:16:49.170Z,11.13
2019-03-21T05:19:18.611Z,11.13
2019-03-21T05:21:48.103Z,11.14
2019-03-21T05:24:17.576Z,11.13
2019-03-21T05:26:47.081Z,11.13
2019-03-21T05:29:16.790Z,11.12
2019-03-21T05:31:46.295Z,11.10
2019-03-21T05:34:15.983Z,11.07
2019-03-21T05:36:45.485Z,11.07
2019-03-21T05:39:15.000Z,11.06
2019-03-21T05:41:44.826Z,11.08
2019-03-21T05:44:23.153Z,11.11
2019-03-21T05:46:52.629Z,11.13
2019-03-21T05:49:22.142Z,11.19
2019-03-21T05:51:51.577Z,11.18
2019-03-21T05:54:21.057Z,11.16
2019-03-21T05:56:50.544Z,11.18
2019-03-21T05:59:19.994Z,11.18
2019-03-21T06:01:49.471Z,11.16
2019-03-21T06:04:18.955Z,11.19
2019-03-21T06:06:55.447Z,11.23
2019-03-21T06:09:24.892Z,11.26
2019-03-21T06:11:57.575Z,11.27
2019-03-21T06:14:27.554Z,11.27
2019-03-21T06:16:57.049Z,11.24
2019-03-21T06:19:29.582Z,11.24
2019-03-21T06:22:14.195Z,11.28
2019-03-21T06:24:49.556Z,11.31
2019-03-21T06:27:27.063Z,11.34
2019-03-21T06:29:56.905Z,11.35
2019-03-21T06:32:27.287Z,11.37
2019-03-21T06:34:57.520Z,11.40
2019-03-21T06:37:28.966Z,11.38
2019-03-21T06:39:58.825Z,11.40
2019-03-21T06:42:28.299Z,11.43
2019-03-21T06:44:57.787Z,11.44
2019-03-21T06:47:27.561Z,11.44
2019-03-21T06:49:57.006Z,11.43
2019-03-21T06:52:26.528Z,11.45
2019-03-21T06:54:56.055Z,11.43
2019-03-21T06:57:25.566Z,11.43
2019-03-21T06:59:55.041Z,11.46
2019-03-21T07:02:24.676Z,11.48
2019-03-21T07:04:54.241Z,11.50
2019-03-21T07:07:24.323Z,11.54
2019-03-21T07:09:53.803Z,11.58
2019-03-21T07:12:23.287Z,11.61
2019-03-21T07:14:52.767Z,11.63
2019-03-21T07:17:23.082Z,11.68
2019-03-21T07:19:52.715Z,11.71
2019-03-21T07:22:22.173Z,11.74
2019-03-21T07:24:51.783Z,11.79
2019-03-21T07:27:21.261Z,11.83
2019-03-21T07:29:50.718Z,11.87
2019-03-21T07:32:20.267Z,11.91
2019-03-21T07:34:49.742Z,11.95
2019-03-21T07:37:19.229Z,12.00
2019-03-21T07:39:48.675Z,12.03
2019-03-21T07:42:18.152Z,12.06
2019-03-21T07:44:47.635Z,12.15
2019-03-21T07:47:17.127Z,12.22
2019-03-21T07:49:46.644Z,12.27
2019-03-21T07:52:16.140Z,12.32
2019-03-21T07:54:45.653Z,12.35
2019-03-21T07:57:15.140Z,12.33
2019-03-21T07:59:44.588Z,12.34
2019-03-21T08:02:14.082Z,12.36
2019-03-21T08:04:43.524Z,12.41
2019-03-21T08:07:13.141Z,12.49
2019-03-21T08:09:42.739Z,12.53
2019-03-21T08:12:12.308Z,12.53
2019-03-21T08:14:41.780Z,12.56
2019-03-21T08:17:11.319Z,12.63
2019-03-21T08:19:40.923Z,12.68
2019-03-21T08:22:10.380Z,12.68
2019-03-21T08:24:39.861Z,12.70
2019-03-21T08:27:09.361Z,12.79
2019-03-21T08:29:38.846Z,12.81
2019-03-21T08:32:08.298Z,12.93
2019-03-21T08:34:37.814Z,13.06
2019-03-21T08:37:07.347Z,13.22
2019-03-21T08:39:36.789Z,13.32
2019-03-21T08:42:06.291Z,13.44
2019-03-21T08:44:35.745Z,13.51
2019-03-21T08:47:05.404Z,13.56
2019-03-21T08:49:34.897Z,13.66
2019-03-21T08:52:04.437Z,13.79
2019-03-21T08:54:35.048Z,13.95
2019-03-21T08:57:04.731Z,14.09
2019-03-21T08:59:34.302Z,14.17
2019-03-21T09:02:04.579Z,14.20
2019-03-21T09:04:34.032Z,14.28
2019-03-21T09:07:04.633Z,14.28
2019-03-21T09:09:34.108Z,14.34
2019-03-21T09:12:04.594Z,14.41
2019-03-21T09:14:36.699Z,14.51
2019-03-21T09:17:06.397Z,14.69
2019-03-21T09:19:35.901Z,14.71
2019-03-21T09:22:05.470Z,14.75
2019-03-21T09:24:34.906Z,14.81
2019-03-21T09:27:04.651Z,14.86
2019-03-21T09:29:34.173Z,14.94
2019-03-21T09:32:04.563Z,15.04
2019-03-21T09:34:34.126Z,15.15
2019-03-21T09:37:04.565Z,15.28
2019-03-21T09:39:34.084Z,15.39
2019-03-21T09:42:04.563Z,15.45
2019-03-21T09:44:34.041Z,15.47
2019-03-21T09:47:04.589Z,15.54
2019-03-21T09:49:34.117Z,15.63
2019-03-21T09:52:04.556Z,15.65
2019-03-21T09:54:34.096Z,15.63
2019-03-21T09:57:04.429Z,15.61
2019-03-21T09:59:33.960Z,15.58
2019-03-21T10:02:04.454Z,15.58
2019-03-21T10:04:33.893Z,15.68
2019-03-21T10:07:04.462Z,15.77
2019-03-21T10:09:33.953Z,15.88
2019-03-21T10:12:04.516Z,16.01
2019-03-21T10:14:34.239Z,16.09
2019-03-21T10:17:04.604Z,16.19
2019-03-21T10:19:35.088Z,16.31
2019-03-21T10:22:04.581Z,16.42
2019-03-21T10:24:34.213Z,16.43
2019-03-21T10:27:04.589Z,16.23
2019-03-21T10:29:34.077Z,16.20
2019-03-21T10:32:13.914Z,16.16
2019-03-21T10:34:35.601Z,16.10
2019-03-21T10:37:05.081Z,16.17
2019-03-21T10:39:34.580Z,16.20
2019-03-21T10:42:04.434Z,16.24
2019-03-21T10:44:33.924Z,16.25
2019-03-21T10:47:04.468Z,16.35
2019-03-21T10:49:34.076Z,16.31
2019-03-21T10:52:04.541Z,16.33
2019-03-21T10:54:34.036Z,16.17
2019-03-21T10:57:04.667Z,15.98
2019-03-21T10:59:34.117Z,15.80
2019-03-21T11:02:07.590Z,15.67
2019-03-21T11:04:35.799Z,15.49
2019-03-21T11:07:04.116Z,15.48
2019-03-21T11:09:33.623Z,15.64
2019-03-21T11:12:03.155Z,15.72
2019-03-21T11:14:32.633Z,15.66
2019-03-21T11:17:02.113Z,15.48
2019-03-21T11:19:31.593Z,15.33
2019-03-21T11:22:06.320Z,15.22
2019-03-21T11:24:33.179Z,15.17
2019-03-21T11:27:03.136Z,15.21
2019-03-21T11:29:32.598Z,15.28
2019-03-21T11:32:02.097Z,15.22
2019-03-21T11:34:32.208Z,15.21
2019-03-21T11:37:01.732Z,15.27
2019-03-21T11:39:31.229Z,15.39
2019-03-21T11:42:00.722Z,15.45
2019-03-21T11:44:30.363Z,15.43
2019-03-21T11:46:59.818Z,15.45
2019-03-21T11:49:29.364Z,15.42
2019-03-21T11:51:58.876Z,15.31
2019-03-21T11:54:28.414Z,15.26
2019-03-21T11:56:57.927Z,15.22
2019-03-21T11:59:41.371Z,15.21
2019-03-21T12:01:58.589Z,15.25
2019-03-21T12:04:30.855Z,15.21
2019-03-21T12:07:00.341Z,15.30
2019-03-21T12:09:29.816Z,15.38
2019-03-21T12:11:59.263Z,15.37
2019-03-21T12:14:28.756Z,15.32
2019-03-21T12:16:58.251Z,15.39
2019-03-21T12:19:27.878Z,15.49
2019-03-21T12:21:57.361Z,15.56
2019-03-21T12:24:26.810Z,15.59
2019-03-21T12:26:56.322Z,15.65
2019-03-21T12:29:25.906Z,15.70
2019-03-21T12:31:55.395Z,15.70
2019-03-21T12:34:24.849Z,15.66
2019-03-21T12:36:54.331Z,15.66
2019-03-21T12:39:23.796Z,15.70
2019-03-21T12:41:53.349Z,15.79
2019-03-21T12:44:22.898Z,15.92
2019-03-21T12:46:52.387Z,16.06
2019-03-21T12:49:21.940Z,16.05
2019-03-21T12:51:51.466Z,16.01
2019-03-21T12:54:20.917Z,16.04
2019-03-21T12:56:52.972Z,16.13
2019-03-21T12:59:21.695Z,16.13
2019-03-21T13:01:51.223Z,16.17
2019-03-21T13:04:20.711Z,16.20
2019-03-21T13:06:50.201Z,16.22
2019-03-21T13:09:19.979Z,16.28
2019-03-21T13:11:49.458Z,16.34
2019-03-21T13:14:18.980Z,16.31
2019-03-21T13:16:48.541Z,16.29
2019-03-21T13:19:18.033Z,16.32
2019-03-21T13:21:47.513Z,16.34
2019-03-21T13:24:19.463Z,16.38
2019-03-21T13:26:48.339Z,16.37
2019-03-21T13:29:17.848Z,16.38
2019-03-21T13:31:47.337Z,16.33
2019-03-21T13:34:16.811Z,16.33
2019-03-21T13:36:46.314Z,16.31
2019-03-21T13:39:15.763Z,16.32
2019-03-21T13:41:45.255Z,16.30
2019-03-21T13:44:14.741Z,16.25
2019-03-21T13:46:44.226Z,16.23
2019-03-21T13:49:13.685Z,16.19
2019-03-21T13:51:43.187Z,16.23
2019-03-21T13:54:12.678Z,16.27
2019-03-21T13:56:42.173Z,16.27
2019-03-21T13:59:11.670Z,16.32
2019-03-21T14:01:41.161Z,16.34
2019-03-21T14:04:10.695Z,16.30
2019-03-21T14:06:40.185Z,16.39
2019-03-21T14:09:09.925Z,16.42
2019-03-21T14:11:39.431Z,16.35
2019-03-21T14:14:09.869Z,16.35
2019-03-21T14:16:39.429Z,16.35
2019-03-21T14:19:08.914Z,16.31
2019-03-21T14:21:39.508Z,16.31
2019-03-21T14:24:09.104Z,16.29
2019-03-21T14:26:39.619Z,16.27
2019-03-21T14:29:12.844Z,16.24
2019-03-21T14:31:41.414Z,16.23
2019-03-21T14:34:10.879Z,16.20
2019-03-21T14:36:40.377Z,16.19
2019-03-21T14:39:09.865Z,16.22
2019-03-21T14:41:39.360Z,16.28
2019-03-21T14:44:09.046Z,16.31
2019-03-21T14:46:38.488Z,16.29
2019-03-21T14:49:08.083Z,16.34
2019-03-21T14:51:37.552Z,16.36
2019-03-21T14:54:07.069Z,16.37
2019-03-21T14:56:36.546Z,16.37
2019-03-21T14:59:06.102Z,16.37
2019-03-21T15:01:35.610Z,16.43
2019-03-21T15:04:05.114Z,16.49
2019-03-21T15:06:34.662Z,16.51
2019-03-21T15:09:06.379Z,16.53
2019-03-21T15:11:37.980Z,16.50
2019-03-21T15:14:07.447Z,16.53
2019-03-21T15:16:36.996Z,16.56
2019-03-21T15:19:06.878Z,16.55
2019-03-21T15:21:36.370Z,16.52
2019-03-21T15:24:05.933Z,16.40
2019-03-21T15:26:35.545Z,16.29
2019-03-21T15:29:05.098Z,16.24
2019-03-21T15:31:34.546Z,16.20
2019-03-21T15:34:04.541Z,16.19
2019-03-21T15:36:34.033Z,16.21
2019-03-21T15:39:07.344Z,16.22
2019-03-21T15:41:38.130Z,16.24
2019-03-21T15:44:07.721Z,16.28
2019-03-21T15:46:38.785Z,16.29
2019-03-21T15:49:08.502Z,16.30
2019-03-21T15:51:38.344Z,16.30
2019-03-21T15:54:07.916Z,16.30
2019-03-21T15:56:37.434Z,16.27
2019-03-21T15:59:06.928Z,16.22
2019-03-21T16:01:36.440Z,16.17
2019-03-21T16:04:06.013Z,16.11
2019-03-21T16:06:35.526Z,16.09
2019-03-21T16:09:06.967Z,16.03
2019-03-21T16:11:36.391Z,15.95
2019-03-21T16:14:06.040Z,15.91
2019-03-21T16:16:35.515Z,15.87
2019-03-21T16:19:05.194Z,15.82
2019-03-21T16:21:34.638Z,15.76
2019-03-21T16:24:05.772Z,15.73
2019-03-21T16:26:37.142Z,15.71
2019-03-21T16:29:06.642Z,15.67
2019-03-21T16:31:36.213Z,15.64
2019-03-21T16:34:05.693Z,15.62
2019-03-21T16:36:35.182Z,15.52
2019-03-21T16:39:06.808Z,15.48
2019-03-21T16:41:36.254Z,15.43
2019-03-21T16:44:05.946Z,15.39
2019-03-21T16:46:35.366Z,15.35
2019-03-21T16:49:04.986Z,15.29
2019-03-21T16:51:34.430Z,15.23
2019-03-21T16:54:16.242Z,15.14
2019-03-21T16:56:36.878Z,15.06
2019-03-21T16:59:06.384Z,14.99
2019-03-21T17:01:35.884Z,14.94
2019-03-21T17:04:05.356Z,14.86
2019-03-21T17:06:34.827Z,14.81
2019-03-21T17:09:07.297Z,14.75
2019-03-21T17:11:36.791Z,14.67
2019-03-21T17:14:07.119Z,14.62
2019-03-21T17:16:36.679Z,14.55
2019-03-21T17:19:06.240Z,14.48
2019-03-21T17:21:35.866Z,14.42
2019-03-21T17:24:07.449Z,14.34
2019-03-21T17:26:37.417Z,14.27
2019-03-21T17:29:06.930Z,14.20
2019-03-21T17:31:36.403Z,14.12
2019-03-21T17:34:06.042Z,14.05
2019-03-21T17:36:35.705Z,13.97
2019-03-21T17:39:08.079Z,13.92
2019-03-21T17:41:37.742Z,13.86
2019-03-21T17:44:07.770Z,13.78
2019-03-21T17:46:37.232Z,13.70
2019-03-21T17:49:06.733Z,13.63
2019-03-21T17:51:36.204Z,13.57
2019-03-21T17:54:05.813Z,13.49
2019-03-21T17:56:35.363Z,13.42
2019-03-21T17:59:04.879Z,13.35
2019-03-21T18:01:35.411Z,13.31
2019-03-21T18:04:05.557Z,13.26
2019-03-21T18:06:36.163Z,13.21
2019-03-21T18:09:08.091Z,13.16
2019-03-21T18:11:39.097Z,13.11
2019-03-21T18:14:08.872Z,13.04
2019-03-21T18:16:38.576Z,12.98
2019-03-21T18:19:08.311Z,12.92
2019-03-21T18:21:37.905Z,12.88
2019-03-21T18:24:07.699Z,12.84
2019-03-21T18:26:37.206Z,12.81
2019-03-21T18:29:06.778Z,12.78
2019-03-21T18:31:36.345Z,12.75
2019-03-21T18:34:05.843Z,12.72
2019-03-21T18:36:35.578Z,12.67
2019-03-21T18:39:07.107Z,12.64
2019-03-21T18:41:36.674Z,12.59
2019-03-21T18:44:06.318Z,12.55
2019-03-21T18:46:36.256Z,12.51
2019-03-21T18:49:06.078Z,12.48
2019-03-21T18:51:35.643Z,12.43
2019-03-21T18:54:05.288Z,12.41
2019-03-21T18:56:34.795Z,12.38
2019-03-21T18:59:04.621Z,12.35
2019-03-21T19:01:34.133Z,12.32
2019-03-21T19:04:04.578Z,12.28
2019-03-21T19:06:34.154Z,12.23
2019-03-21T19:09:07.152Z,12.18
2019-03-21T19:11:36.706Z,12.15
2019-03-21T19:14:06.230Z,12.09
2019-03-21T19:16:36.959Z,12.07
2019-03-21T19:19:06.468Z,12.02
2019-03-21T19:21:35.975Z,11.99
2019-03-21T19:24:05.579Z,11.96
2019-03-21T19:26:35.659Z,11.92
2019-03-21T19:29:05.409Z,11.88
2019-03-21T19:31:35.017Z,11.84
2019-03-21T19:34:04.535Z,11.82
2019-03-21T19:36:34.071Z,11.77
2019-03-21T19:39:07.318Z,11.70
2019-03-21T19:41:36.899Z,11.68
2019-03-21T19:44:06.531Z,11.65
2019-03-21T19:46:35.979Z,11.63
2019-03-21T19:49:05.567Z,11.61
2019-03-21T19:51:35.029Z,11.57
2019-03-21T19:54:04.945Z,11.56
2019-03-21T19:56:34.418Z,11.53
2019-03-21T19:59:04.485Z,11.49
2019-03-21T20:01:34.029Z,11.47
2019-03-21T20:04:04.549Z,11.44
2019-03-21T20:06:34.076Z,11.41
2019-03-21T20:09:06.526Z,11.36
2019-03-21T20:11:36.017Z,11.34
2019-03-21T20:14:05.548Z,11.30
2019-03-21T20:16:35.291Z,11.25
2019-03-21T20:19:04.950Z,11.18
2019-03-21T20:21:34.383Z,11.11
2019-03-21T20:24:04.569Z,11.06
2019-03-21T20:26:34.133Z,11.05
2019-03-21T20:29:04.951Z,11.03
2019-03-21T20:31:34.848Z,11.00
2019-03-21T20:34:05.514Z,10.96
2019-03-21T20:36:36.167Z,10.91
2019-03-21T20:39:08.051Z,10.87
2019-03-21T20:41:37.642Z,10.83
2019-03-21T20:44:14.984Z,10.81
2019-03-21T20:46:39.278Z,10.78
2019-03-21T20:49:09.196Z,10.74
2019-03-21T20:51:38.820Z,10.70
2019-03-21T20:54:08.330Z,10.65
2019-03-21T20:56:37.916Z,10.59
2019-03-21T20:59:07.512Z,10.56
2019-03-21T21:01:37.040Z,10.56
2019-03-21T21:04:06.677Z,10.54
2019-03-21T21:06:36.193Z,10.53
2019-03-21T21:09:07.411Z,10.49
2019-03-21T21:11:37.494Z,10.46
2019-03-21T21:14:08.209Z,10.44
2019-03-21T21:16:37.711Z,10.40
2019-03-21T21:19:07.242Z,10.37
2019-03-21T21:21:36.928Z,10.34
2019-03-21T21:24:06.611Z,10.29
2019-03-21T21:26:36.100Z,10.21
2019-03-21T21:29:06.152Z,10.15
2019-03-21T21:31:35.838Z,10.13
2019-03-21T21:34:05.691Z,10.11
2019-03-21T21:36:35.275Z,10.11
2019-03-21T21:39:07.237Z,10.10
2019-03-21T21:41:37.122Z,10.08
2019-03-21T21:44:06.769Z,10.03
2019-03-21T21:46:36.308Z,9.99
2019-03-21T21:49:05.978Z,9.90
2019-03-21T21:51:35.465Z,9.79
2019-03-21T21:54:05.017Z,9.74
2019-03-21T21:56:34.488Z,9.67
2019-03-21T21:59:04.525Z,9.60
2019-03-21T22:01:34.051Z,9.56
2019-03-21T22:04:05.279Z,9.52
2019-03-21T22:06:34.801Z,9.48
2019-03-21T22:09:06.107Z,9.42
2019-03-21T22:11:35.741Z,9.42
2019-03-21T22:14:05.571Z,9.41
2019-03-21T22:16:35.020Z,9.43
2019-03-21T22:19:04.680Z,9.41
2019-03-21T22:21:34.190Z,9.42
2019-03-21T22:24:04.569Z,9.39
2019-03-21T22:26:34.012Z,9.36
2019-03-21T22:29:04.429Z,9.33
2019-03-21T22:31:33.917Z,9.31
2019-03-21T22:34:04.531Z,9.29
2019-03-21T22:36:34.031Z,9.27
2019-03-21T22:39:06.540Z,9.26
2019-03-21T22:41:36.084Z,9.25
2019-03-21T22:44:06.019Z,9.22
2019-03-21T22:46:35.581Z,9.20
2019-03-21T22:49:05.051Z,9.18
2019-03-21T22:51:34.507Z,9.17
2019-03-21T22:54:04.487Z,9.14
2019-03-21T22:56:41.077Z,9.09
2019-03-21T22:59:05.119Z,9.05
2019-03-21T23:01:34.651Z,8.99
2019-03-21T23:04:04.567Z,8.94
2019-03-21T23:06:35.099Z,8.92
2019-03-21T23:09:07.670Z,8.88
2019-03-21T23:11:37.202Z,8.85
2019-03-21T23:14:06.643Z,8.85
2019-03-21T23:16:36.207Z,8.85
2019-03-21T23:19:05.725Z,8.85
2019-03-21T23:21:35.199Z,8.80
2019-03-21T23:24:04.772Z,8.73
2019-03-21T23:26:34.319Z,8.71
2019-03-21T23:29:04.424Z,8.68
2019-03-21T23:31:34.039Z,8.67
2019-03-21T23:34:04.481Z,8.69
2019-03-21T23:36:34.965Z,8.66
2019-03-21T23:39:06.241Z,8.66
2019-03-21T23:41:35.741Z,8.65
2019-03-21T23:44:05.364Z,8.66
2019-03-21T23:46:34.902Z,8.66
2019-03-21T23:49:04.554Z,8.63
2019-03-21T23:51:34.205Z,8.61
2019-03-21T23:54:04.704Z,8.60
2019-03-21T23:56:34.174Z,8.59
2019-03-21T23:59:04.551Z,8.58
